createdAt,value
2018-06-15T00:00:20.393Z,13.90
2018-06-15T00:02:54.722Z,13.80
2018-06-15T00:05:23.886Z,13.90
2018-06-15T00:07:53.027Z,14.40
2018-06-15T00:10:22.301Z,14.40
2018-06-15T00:12:51.661Z,14.20
2018-06-15T00:15:20.861Z,14.10
2018-06-15T00:17:50.073Z,14.00
2018-06-15T00:20:19.333Z,14.00
2018-06-15T00:22:48.446Z,14.10
2018-06-15T00:25:17.650Z,14.00
2018-06-15T00:27:46.866Z,13.90
2018-06-15T00:30:18.109Z,14.30
2018-06-15T00:32:47.350Z,14.30
2018-06-15T00:35:16.561Z,14.50
2018-06-15T00:37:45.691Z,14.60
2018-06-15T00:40:14.854Z,14.50
2018-06-15T00:42:44.029Z,14.30
2018-06-15T00:45:13.018Z,14.20
2018-06-15T00:47:42.173Z,14.10
2018-06-15T00:50:11.430Z,14.40
2018-06-15T00:52:40.606Z,14.50
2018-06-15T00:55:09.725Z,14.50
2018-06-15T00:57:49.895Z,14.40
2018-06-15T01:00:19.013Z,14.40
2018-06-15T01:02:48.178Z,14.40
2018-06-15T01:05:17.281Z,14.20
2018-06-15T01:07:46.431Z,14.20
2018-06-15T01:10:15.706Z,14.50
2018-06-15T01:12:44.863Z,14.40
2018-06-15T01:15:14.058Z,14.20
2018-06-15T01:17:43.211Z,14.00
2018-06-15T01:20:12.402Z,14.00
2018-06-15T01:22:41.553Z,14.00
2018-06-15T01:25:10.722Z,14.00
2018-06-15T01:27:39.890Z,14.10
2018-06-15T01:30:08.986Z,14.40
2018-06-15T01:32:38.186Z,14.10
2018-06-15T01:35:07.399Z,13.90
2018-06-15T01:37:36.566Z,13.80
2018-06-15T01:40:05.682Z,13.80
2018-06-15T01:42:34.924Z,13.90
2018-06-15T01:45:05.042Z,14.00
2018-06-15T01:47:34.222Z,14.20
2018-06-15T01:50:03.315Z,14.00
2018-06-15T01:52:32.426Z,14.10
2018-06-15T01:55:01.607Z,14.50
2018-06-15T01:57:30.754Z,14.40
2018-06-15T01:59:59.882Z,14.20
2018-06-15T02:02:29.037Z,14.30
2018-06-15T02:04:58.129Z,14.40
2018-06-15T02:07:27.278Z,14.30
2018-06-15T02:09:56.370Z,14.30
2018-06-15T02:12:25.534Z,14.40
2018-06-15T02:14:54.664Z,14.40
2018-06-15T02:17:24.696Z,14.40
2018-06-15T02:19:53.890Z,14.40
2018-06-15T02:22:22.998Z,14.60
2018-06-15T02:24:52.101Z,14.70
2018-06-15T02:27:21.269Z,14.50
2018-06-15T02:29:50.391Z,14.50
2018-06-15T02:32:19.566Z,14.30
2018-06-15T02:34:48.710Z,14.30
2018-06-15T02:37:17.993Z,14.30
2018-06-15T02:39:47.219Z,14.20
2018-06-15T02:42:16.450Z,14.30
2018-06-15T02:44:45.596Z,14.40
2018-06-15T02:47:14.639Z,14.50
2018-06-15T02:49:43.783Z,14.70
2018-06-15T02:52:12.899Z,14.60
2018-06-15T02:54:41.820Z,14.60
2018-06-15T02:57:10.905Z,14.60
2018-06-15T02:59:40.119Z,14.80
2018-06-15T03:02:09.354Z,14.70
2018-06-15T03:04:38.525Z,14.80
2018-06-15T03:07:07.633Z,14.70
2018-06-15T03:09:36.796Z,14.70
2018-06-15T03:12:05.907Z,14.60
2018-06-15T03:14:35.059Z,14.50
2018-06-15T03:17:04.242Z,14.50
2018-06-15T03:19:33.438Z,14.60
2018-06-15T03:22:02.682Z,14.60
2018-06-15T03:24:31.879Z,14.50
2018-06-15T03:27:01.073Z,14.70
2018-06-15T03:29:30.288Z,14.80
2018-06-15T03:31:59.402Z,14.70
2018-06-15T03:34:28.557Z,14.60
2018-06-15T03:36:57.771Z,14.60
2018-06-15T03:39:26.934Z,14.70
2018-06-15T03:41:55.763Z,14.90
2018-06-15T03:44:24.869Z,15.20
2018-06-15T03:46:54.015Z,15.00
2018-06-15T03:49:22.925Z,14.80
2018-06-15T03:51:52.058Z,14.70
2018-06-15T03:54:21.202Z,14.60
2018-06-15T03:56:50.377Z,14.50
2018-06-15T03:59:19.526Z,14.50
2018-06-15T04:01:48.653Z,14.60
2018-06-15T04:04:17.756Z,14.60
2018-06-15T04:06:46.954Z,14.70
2018-06-15T04:09:16.210Z,14.70
2018-06-15T04:11:45.318Z,14.60
2018-06-15T04:14:14.470Z,14.60
2018-06-15T04:16:43.697Z,14.60
2018-06-15T04:19:12.898Z,14.60
2018-06-15T04:21:42.039Z,14.50
2018-06-15T04:24:11.318Z,14.70
2018-06-15T04:26:40.422Z,14.70
2018-06-15T04:29:09.565Z,14.60
2018-06-15T04:31:38.738Z,14.70
2018-06-15T04:34:08.034Z,14.80
2018-06-15T04:36:37.197Z,15.10
2018-06-15T04:39:08.622Z,15.00
2018-06-15T04:41:37.778Z,14.90
2018-06-15T04:44:06.989Z,14.90
2018-06-15T04:46:36.676Z,14.90
2018-06-15T04:49:05.918Z,15.00
2018-06-15T04:51:35.093Z,15.00
2018-06-15T04:54:04.201Z,15.10
2018-06-15T04:56:33.366Z,15.10
2018-06-15T04:59:02.538Z,15.30
2018-06-15T05:01:31.605Z,15.30
2018-06-15T05:04:00.817Z,15.40
2018-06-15T05:06:29.969Z,15.50
2018-06-15T05:08:59.162Z,15.80
2018-06-15T05:11:28.127Z,15.70
2018-06-15T05:13:57.350Z,15.70
2018-06-15T05:16:26.509Z,15.80
2018-06-15T05:18:55.648Z,15.80
2018-06-15T05:21:24.753Z,15.90
2018-06-15T05:23:54.014Z,16.00
2018-06-15T05:26:23.248Z,16.00
2018-06-15T05:28:52.395Z,16.10
2018-06-15T05:31:21.577Z,16.10
2018-06-15T05:33:50.733Z,16.20
2018-06-15T05:36:19.903Z,16.40
2018-06-15T05:38:49.061Z,16.50
2018-06-15T05:41:18.165Z,16.70
2018-06-15T05:43:47.225Z,16.90
2018-06-15T05:46:16.391Z,17.30
2018-06-15T05:48:45.668Z,17.40
2018-06-15T05:51:14.790Z,17.60
2018-06-15T05:53:43.818Z,17.60
2018-06-15T05:56:12.966Z,17.60
2018-06-15T05:58:42.126Z,17.70
2018-06-15T06:01:11.317Z,17.90
2018-06-15T06:03:40.418Z,17.80
2018-06-15T06:06:09.579Z,17.80
2018-06-15T06:08:38.746Z,17.60
2018-06-15T06:11:08.006Z,17.60
2018-06-15T06:13:37.123Z,17.80
2018-06-15T06:16:06.274Z,17.80
2018-06-15T06:18:35.540Z,17.80
2018-06-15T06:21:04.646Z,17.70
2018-06-15T06:23:33.818Z,17.80
2018-06-15T06:26:02.903Z,17.90
2018-06-15T06:28:32.075Z,18.10
2018-06-15T06:31:01.219Z,18.30
2018-06-15T06:33:30.351Z,18.40
2018-06-15T06:35:59.502Z,18.20
2018-06-15T06:38:28.599Z,18.30
2018-06-15T06:40:57.800Z,18.30
2018-06-15T06:43:27.139Z,18.20
2018-06-15T06:45:56.300Z,18.20
2018-06-15T06:48:25.473Z,18.00
2018-06-15T06:50:54.625Z,18.10
2018-06-15T06:53:23.717Z,18.20
2018-06-15T06:55:52.996Z,18.40
2018-06-15T06:58:22.126Z,18.30
2018-06-15T07:00:51.214Z,18.30
2018-06-15T07:03:20.371Z,18.40
2018-06-15T07:05:49.570Z,18.60
2018-06-15T07:08:18.741Z,19.00
2018-06-15T07:10:47.889Z,19.10
2018-06-15T07:13:17.063Z,19.20
2018-06-15T07:15:46.176Z,19.00
2018-06-15T07:18:15.433Z,19.00
2018-06-15T07:20:44.618Z,19.00
2018-06-15T07:23:13.702Z,19.30
2018-06-15T07:25:42.898Z,19.60
2018-06-15T07:28:12.069Z,19.70
2018-06-15T07:30:41.264Z,20.10
2018-06-15T07:33:10.318Z,20.10
2018-06-15T07:35:39.583Z,20.00
2018-06-15T07:38:08.721Z,20.30
2018-06-15T07:40:37.854Z,20.30
2018-06-15T07:43:07.199Z,20.50
2018-06-15T07:45:36.318Z,20.50
2018-06-15T07:48:05.461Z,20.40
2018-06-15T07:50:34.648Z,20.30
2018-06-15T07:53:03.974Z,20.00
2018-06-15T07:55:33.074Z,20.10
2018-06-15T07:58:02.409Z,20.30
2018-06-15T08:00:31.515Z,19.90
2018-06-15T08:03:00.706Z,19.50
2018-06-15T08:05:29.905Z,19.50
2018-06-15T08:07:59.121Z,19.40
2018-06-15T08:10:28.286Z,19.50
2018-06-15T08:12:57.553Z,19.40
2018-06-15T08:15:26.705Z,19.00
2018-06-15T08:17:55.601Z,18.90
2018-06-15T08:20:24.474Z,19.00
2018-06-15T08:22:53.934Z,19.10
2018-06-15T08:25:22.998Z,19.50
2018-06-15T08:27:52.227Z,19.50
2018-06-15T08:30:21.269Z,19.60
2018-06-15T08:32:50.100Z,19.70
2018-06-15T08:35:19.253Z,20.00
2018-06-15T08:37:48.353Z,20.10
2018-06-15T08:40:17.422Z,20.10
2018-06-15T08:42:46.586Z,20.50
2018-06-15T08:45:15.718Z,20.70
2018-06-15T08:47:44.834Z,20.50
2018-06-15T08:50:14.022Z,20.60
2018-06-15T08:52:43.290Z,20.80
2018-06-15T08:55:12.427Z,20.70
2018-06-15T08:57:41.559Z,20.70
2018-06-15T09:00:10.621Z,20.60
2018-06-15T09:02:39.491Z,20.50
2018-06-15T09:05:08.747Z,20.70
2018-06-15T09:07:37.869Z,21.00
2018-06-15T09:10:07.019Z,21.20
2018-06-15T09:12:36.186Z,21.20
2018-06-15T09:15:05.434Z,21.50
2018-06-15T09:17:34.531Z,21.50
2018-06-15T09:20:03.602Z,21.70
2018-06-15T09:22:32.834Z,21.70
2018-06-15T09:25:02.000Z,21.60
2018-06-15T09:27:31.197Z,21.60
2018-06-15T09:30:00.287Z,21.70
2018-06-15T09:32:29.567Z,21.70
2018-06-15T09:34:58.787Z,21.50
2018-06-15T09:37:27.938Z,21.50
2018-06-15T09:39:57.175Z,21.80
2018-06-15T09:42:26.314Z,22.10
2018-06-15T09:44:55.450Z,22.30
2018-06-15T09:47:24.546Z,22.10
2018-06-15T09:49:53.859Z,22.00
2018-06-15T09:52:23.046Z,21.70
2018-06-15T09:54:52.450Z,21.90
2018-06-15T09:57:23.928Z,21.80
2018-06-15T09:59:53.053Z,22.00
2018-06-15T10:02:22.277Z,21.70
2018-06-15T10:04:51.514Z,21.50
2018-06-15T10:07:20.696Z,22.00
2018-06-15T10:09:49.903Z,22.00
2018-06-15T10:12:18.961Z,22.20
2018-06-15T10:14:48.194Z,22.10
2018-06-15T10:17:17.422Z,22.20
2018-06-15T10:19:46.636Z,22.30
2018-06-15T10:22:15.828Z,22.30
2018-06-15T10:24:44.920Z,22.40
2018-06-15T10:27:13.981Z,22.30
2018-06-15T10:29:43.030Z,22.40
2018-06-15T10:32:12.202Z,22.50
2018-06-15T10:34:41.254Z,22.30
2018-06-15T10:37:10.410Z,21.90
2018-06-15T10:39:39.453Z,21.90
2018-06-15T10:42:08.626Z,22.20
2018-06-15T10:44:37.799Z,22.20
2018-06-15T10:47:07.014Z,22.50
2018-06-15T10:49:36.174Z,22.90
2018-06-15T10:52:05.667Z,22.90
2018-06-15T10:54:34.817Z,22.30
2018-06-15T10:57:03.899Z,22.30
2018-06-15T10:59:33.062Z,22.60
2018-06-15T11:02:02.207Z,22.90
2018-06-15T11:04:31.341Z,23.40
2018-06-15T11:07:00.574Z,23.60
2018-06-15T11:09:29.791Z,24.00
2018-06-15T11:11:58.950Z,24.50
2018-06-15T11:14:28.105Z,24.50
2018-06-15T11:16:57.275Z,24.80
2018-06-15T11:19:26.809Z,25.20
2018-06-15T11:21:55.981Z,25.30
2018-06-15T11:24:25.233Z,24.90
2018-06-15T11:26:54.365Z,24.70
2018-06-15T11:29:23.522Z,24.40
2018-06-15T11:31:52.576Z,24.80
2018-06-15T11:34:21.367Z,25.30
2018-06-15T11:36:50.663Z,25.30
2018-06-15T11:39:19.770Z,25.80
2018-06-15T11:41:48.983Z,25.90
2018-06-15T11:44:18.094Z,26.10
2018-06-15T11:46:47.347Z,26.10
2018-06-15T11:49:16.677Z,26.00
2018-06-15T11:51:45.845Z,26.20
2018-06-15T11:54:14.983Z,26.30
2018-06-15T11:56:44.070Z,25.90
2018-06-15T11:59:13.219Z,26.30
2018-06-15T12:01:42.381Z,26.20
2018-06-15T12:04:11.678Z,26.20
2018-06-15T12:06:40.765Z,26.20
2018-06-15T12:09:10.654Z,26.80
2018-06-15T12:11:39.865Z,27.00
2018-06-15T12:14:09.087Z,26.40
2018-06-15T12:16:38.230Z,26.70
2018-06-15T12:19:07.389Z,26.80
2018-06-15T12:21:36.763Z,26.90
2018-06-15T12:24:05.981Z,27.60
2018-06-15T12:26:35.153Z,28.10
2018-06-15T12:29:04.391Z,28.10
2018-06-15T12:31:33.561Z,27.80
2018-06-15T12:34:02.790Z,27.30
2018-06-15T12:36:31.906Z,27.70
2018-06-15T12:39:01.184Z,28.00
2018-06-15T12:41:30.275Z,27.20
2018-06-15T12:43:59.408Z,26.90
2018-06-15T12:46:28.381Z,27.40
2018-06-15T12:48:59.339Z,27.70
2018-06-15T12:51:28.850Z,27.80
2018-06-15T12:53:57.739Z,27.60
2018-06-15T12:56:26.962Z,28.10
2018-06-15T12:58:56.158Z,28.40
2018-06-15T13:01:25.387Z,28.20
2018-06-15T13:03:54.989Z,27.80
2018-06-15T13:06:24.164Z,28.00
2018-06-15T13:08:53.318Z,27.80
2018-06-15T13:11:22.485Z,27.70
2018-06-15T13:13:51.622Z,27.60
2018-06-15T13:16:20.705Z,27.40
2018-06-15T13:18:49.774Z,27.60
2018-06-15T13:21:18.929Z,27.80
2018-06-15T13:23:48.102Z,27.80
2018-06-15T13:26:17.183Z,27.70
2018-06-15T13:28:46.363Z,27.70
2018-06-15T13:31:15.539Z,27.10
2018-06-15T13:33:44.673Z,27.00
2018-06-15T13:36:13.901Z,26.60
2018-06-15T13:38:43.279Z,26.30
2018-06-15T13:41:12.482Z,25.70
2018-06-15T13:43:41.622Z,25.20
2018-06-15T13:46:11.666Z,24.70
2018-06-15T13:48:40.893Z,24.50
2018-06-15T13:51:10.058Z,24.10
2018-06-15T13:53:39.158Z,24.00
2018-06-15T13:56:08.290Z,23.80
2018-06-15T13:58:37.474Z,23.70
2018-06-15T14:01:06.638Z,23.70
2018-06-15T14:03:35.758Z,23.90
2018-06-15T14:06:05.010Z,23.90
2018-06-15T14:08:34.139Z,23.80
2018-06-15T14:11:03.290Z,23.40
2018-06-15T14:13:32.548Z,23.40
2018-06-15T14:16:01.741Z,23.40
2018-06-15T14:18:30.871Z,23.30
2018-06-15T14:21:00.094Z,23.40
2018-06-15T14:23:29.237Z,23.50
2018-06-15T14:25:58.346Z,23.50
2018-06-15T14:28:27.535Z,23.60
2018-06-15T14:30:56.690Z,23.80
2018-06-15T14:33:25.954Z,24.00
2018-06-15T14:35:55.166Z,23.80
2018-06-15T14:38:24.316Z,23.90
2018-06-15T14:40:53.449Z,24.00
2018-06-15T14:43:22.581Z,23.90
2018-06-15T14:45:51.834Z,23.60
2018-06-15T14:48:21.034Z,23.80
2018-06-15T14:50:50.229Z,23.80
2018-06-15T14:53:19.394Z,23.80
2018-06-15T14:55:48.545Z,23.80
2018-06-15T14:58:17.698Z,24.10
2018-06-15T15:00:46.866Z,24.10
2018-06-15T15:03:16.194Z,24.00
2018-06-15T15:05:45.343Z,24.30
2018-06-15T15:08:14.423Z,24.20
2018-06-15T15:10:43.539Z,23.80
2018-06-15T15:13:12.634Z,23.60
2018-06-15T15:15:41.699Z,23.50
2018-06-15T15:18:10.593Z,23.30
2018-06-15T15:20:39.694Z,23.40
2018-06-15T15:23:08.927Z,23.40
2018-06-15T15:25:38.153Z,23.40
2018-06-15T15:28:07.321Z,23.60
2018-06-15T15:30:36.414Z,23.30
2018-06-15T15:33:05.551Z,23.40
2018-06-15T15:35:34.681Z,23.50
2018-06-15T15:38:03.746Z,23.40
2018-06-15T15:40:32.629Z,23.60
2018-06-15T15:43:01.867Z,23.70
2018-06-15T15:45:31.074Z,23.80
2018-06-15T15:48:00.260Z,23.80
2018-06-15T15:50:29.432Z,23.90
2018-06-15T15:52:58.686Z,23.70
2018-06-15T15:55:27.873Z,23.60
2018-06-15T15:57:56.997Z,23.60
2018-06-15T16:00:26.276Z,23.70
2018-06-15T16:02:55.417Z,23.70
2018-06-15T16:05:24.574Z,23.70
2018-06-15T16:07:53.714Z,23.50
2018-06-15T16:10:22.697Z,23.50
2018-06-15T16:12:51.835Z,23.70
2018-06-15T16:15:21.018Z,23.80
2018-06-15T16:17:50.257Z,23.90
2018-06-15T16:20:19.434Z,23.80
2018-06-15T16:22:48.609Z,24.00
2018-06-15T16:25:17.813Z,23.90
2018-06-15T16:27:47.069Z,24.00
2018-06-15T16:30:16.317Z,24.20
2018-06-15T16:32:45.852Z,24.30
2018-06-15T16:35:14.990Z,24.50
2018-06-15T16:37:43.897Z,24.70
2018-06-15T16:40:13.093Z,24.80
2018-06-15T16:42:42.274Z,24.60
2018-06-15T16:45:11.210Z,24.40
2018-06-15T16:47:40.342Z,24.30
2018-06-15T16:50:09.526Z,24.40
2018-06-15T16:52:38.674Z,24.30
2018-06-15T16:55:07.798Z,24.00
2018-06-15T16:57:36.942Z,23.70
2018-06-15T17:00:06.330Z,23.20
2018-06-15T17:02:35.982Z,22.70
2018-06-15T17:05:05.092Z,22.40
2018-06-15T17:07:34.253Z,22.40
2018-06-15T17:10:03.370Z,22.50
2018-06-15T17:12:32.476Z,22.40
2018-06-15T17:15:01.515Z,22.70
2018-06-15T17:17:30.757Z,22.70
2018-06-15T17:20:00.205Z,22.60
2018-06-15T17:22:29.677Z,22.20
2018-06-15T17:24:58.791Z,22.30
2018-06-15T17:27:27.957Z,22.30
2018-06-15T17:29:57.105Z,22.20
2018-06-15T17:32:26.341Z,22.10
2018-06-15T17:34:55.496Z,21.90
2018-06-15T17:37:24.769Z,21.90
2018-06-15T17:39:54.378Z,21.90
2018-06-15T17:42:23.495Z,21.90
2018-06-15T17:44:52.723Z,21.60
2018-06-15T17:47:21.543Z,21.60
2018-06-15T17:49:50.674Z,21.60
2018-06-15T17:52:19.777Z,21.60
2018-06-15T17:54:48.937Z,21.40
2018-06-15T17:57:18.282Z,21.30
2018-06-15T17:59:47.492Z,21.20
2018-06-15T18:02:16.673Z,21.20
2018-06-15T18:04:45.693Z,21.20
2018-06-15T18:07:14.854Z,21.20
2018-06-15T18:09:43.950Z,21.00
2018-06-15T18:12:13.198Z,20.80
2018-06-15T18:14:42.608Z,20.70
2018-06-15T18:17:11.755Z,20.50
2018-06-15T18:19:40.839Z,20.40
2018-06-15T18:22:10.038Z,20.30
2018-06-15T18:24:39.182Z,20.20
2018-06-15T18:27:08.374Z,20.10
2018-06-15T18:29:37.555Z,20.10
2018-06-15T18:32:06.787Z,20.20
2018-06-15T18:34:35.921Z,20.20
2018-06-15T18:37:05.151Z,20.20
2018-06-15T18:39:34.350Z,20.00
2018-06-15T18:42:03.408Z,19.90
2018-06-15T18:44:32.709Z,19.80
2018-06-15T18:47:01.903Z,19.80
2018-06-15T18:49:31.178Z,19.80
2018-06-15T18:52:01.605Z,19.90
2018-06-15T18:54:30.793Z,19.70
2018-06-15T18:56:59.882Z,19.50
2018-06-15T18:59:29.018Z,19.40
2018-06-15T19:01:58.081Z,19.30
2018-06-15T19:04:27.229Z,19.30
2018-06-15T19:06:56.397Z,19.30
2018-06-15T19:09:25.559Z,19.20
2018-06-15T19:11:54.706Z,19.20
2018-06-15T19:14:23.877Z,19.00
2018-06-15T19:16:52.986Z,18.80
2018-06-15T19:19:22.102Z,18.70
2018-06-15T19:21:51.342Z,18.60
2018-06-15T19:24:20.382Z,18.60
2018-06-15T19:26:49.681Z,18.60
2018-06-15T19:29:18.734Z,18.40
2018-06-15T19:31:47.846Z,18.30
2018-06-15T19:34:16.938Z,18.30
2018-06-15T19:36:46.098Z,18.30
2018-06-15T19:39:15.265Z,18.30
2018-06-15T19:41:44.393Z,18.30
2018-06-15T19:44:13.574Z,18.20
2018-06-15T19:46:42.691Z,18.30
2018-06-15T19:49:11.867Z,18.20
2018-06-15T19:51:41.071Z,18.00
2018-06-15T19:54:10.230Z,17.90
2018-06-15T19:56:39.333Z,18.00
2018-06-15T19:59:08.596Z,18.00
2018-06-15T20:01:37.635Z,17.80
2018-06-15T20:04:06.737Z,17.60
2018-06-15T20:06:35.961Z,17.60
2018-06-15T20:09:08.186Z,17.50
2018-06-15T20:11:38.057Z,17.50
2018-06-15T20:14:07.251Z,17.50
2018-06-15T20:16:36.442Z,17.60
2018-06-15T20:19:05.527Z,17.40
2018-06-15T20:21:34.633Z,17.40
2018-06-15T20:24:03.890Z,17.30
2018-06-15T20:26:33.086Z,17.30
2018-06-15T20:29:02.330Z,17.30
2018-06-15T20:31:31.362Z,17.40
2018-06-15T20:34:00.514Z,17.30
2018-06-15T20:36:29.702Z,17.30
2018-06-15T20:38:58.921Z,17.20
2018-06-15T20:41:28.018Z,17.20
2018-06-15T20:43:57.070Z,17.20
2018-06-15T20:46:25.961Z,17.20
2018-06-15T20:48:55.107Z,17.10
2018-06-15T20:51:24.259Z,17.00
2018-06-15T20:53:53.089Z,17.00
2018-06-15T20:56:22.278Z,17.10
2018-06-15T20:58:51.577Z,17.00
2018-06-15T21:01:20.673Z,17.10
2018-06-15T21:03:50.126Z,17.10
2018-06-15T21:06:19.322Z,16.90
2018-06-15T21:08:48.617Z,16.80
2018-06-15T21:11:17.766Z,16.70
2018-06-15T21:13:46.892Z,16.80
2018-06-15T21:16:16.037Z,16.80
2018-06-15T21:18:45.190Z,16.60
2018-06-15T21:21:14.442Z,16.60
2018-06-15T21:23:43.622Z,16.60
2018-06-15T21:26:12.777Z,16.40
2018-06-15T21:28:41.962Z,16.40
2018-06-15T21:31:11.053Z,16.50
2018-06-15T21:33:40.158Z,16.40
2018-06-15T21:36:09.334Z,16.40
2018-06-15T21:38:38.582Z,16.70
2018-06-15T21:41:07.823Z,16.60
2018-06-15T21:43:38.671Z,16.60
2018-06-15T21:46:07.765Z,16.50
2018-06-15T21:48:36.946Z,16.40
2018-06-15T21:51:06.157Z,16.30
2018-06-15T21:53:35.329Z,16.40
2018-06-15T21:56:04.500Z,16.40
2018-06-15T21:58:33.629Z,16.30
2018-06-15T22:01:02.806Z,16.20
2018-06-15T22:03:32.047Z,16.30
2018-06-15T22:06:01.224Z,16.30
2018-06-15T22:08:30.370Z,16.30
2018-06-15T22:10:59.426Z,16.20
2018-06-15T22:13:28.581Z,16.10
2018-06-15T22:15:57.727Z,16.10
2018-06-15T22:18:26.892Z,16.00
2018-06-15T22:20:56.150Z,15.60
2018-06-15T22:23:25.398Z,15.30
2018-06-15T22:25:54.575Z,15.30
2018-06-15T22:28:23.734Z,15.40
2018-06-15T22:30:52.942Z,15.30
2018-06-15T22:33:22.138Z,15.30
2018-06-15T22:35:51.389Z,15.40
2018-06-15T22:38:20.746Z,15.30
2018-06-15T22:40:49.903Z,15.30
2018-06-15T22:43:19.033Z,15.20
2018-06-15T22:45:49.281Z,15.20
2018-06-15T22:48:18.546Z,15.40
2018-06-15T22:50:47.670Z,15.70
2018-06-15T22:53:16.921Z,15.80
2018-06-15T22:55:46.125Z,15.70
2018-06-15T22:58:15.328Z,15.80
2018-06-15T23:00:44.511Z,15.60
2018-06-15T23:03:13.724Z,15.50
2018-06-15T23:05:42.892Z,15.40
2018-06-15T23:08:12.002Z,15.40
2018-06-15T23:10:41.190Z,15.50
2018-06-15T23:13:10.357Z,15.50
2018-06-15T23:15:39.620Z,15.50
2018-06-15T23:18:08.822Z,15.50
2018-06-15T23:20:37.989Z,15.50
2018-06-15T23:23:07.030Z,15.40
2018-06-15T23:25:36.298Z,15.40
2018-06-15T23:28:05.551Z,15.40
2018-06-15T23:30:35.782Z,15.50
2018-06-15T23:33:04.891Z,15.60
2018-06-15T23:35:34.054Z,15.60
2018-06-15T23:38:03.287Z,15.60
2018-06-15T23:40:32.503Z,15.70
2018-06-15T23:43:01.731Z,15.70
2018-06-15T23:45:30.884Z,15.60
2018-06-15T23:48:00.023Z,15.60
2018-06-15T23:50:29.117Z,15.60
2018-06-15T23:52:58.039Z,15.70
2018-06-15T23:55:27.190Z,15.50
2018-06-15T23:57:56.373Z,15.50
